createdAt,value
2019-06-26T00:00:52.451Z,1012.1
2019-06-26T00:01:54.639Z,1012.1
2019-06-26T00:02:57.247Z,1012.1
2019-06-26T00:03:59.437Z,1012.1
2019-06-26T00:05:02.260Z,1012.1
2019-06-26T00:06:05.018Z,1012.1
2019-06-26T00:07:07.222Z,1012.1
2019-06-26T00:08:10.159Z,1012
2019-06-26T00:09:12.791Z,1012
2019-06-26T00:10:15.035Z,1012
2019-06-26T00:11:17.276Z,1012
2019-06-26T00:12:19.470Z,1012
2019-06-26T00:13:27.150Z,1012
2019-06-26T00:14:29.942Z,1012
2019-06-26T00:15:32.539Z,1012
2019-06-26T00:16:34.798Z,1012
2019-06-26T00:17:36.981Z,1012
2019-06-26T00:18:39.237Z,1012
2019-06-26T00:19:41.449Z,1012
2019-06-26T00:20:44.026Z,1011.9
2019-06-26T00:21:46.284Z,1012
2019-06-26T00:22:48.504Z,1012
2019-06-26T00:23:51.406Z,1012
2019-06-26T00:24:53.862Z,1012
2019-06-26T00:25:56.112Z,1012
2019-06-26T00:26:58.630Z,1011.9
2019-06-26T00:28:01.112Z,1011.9
2019-06-26T00:29:03.445Z,1011.9
2019-06-26T00:30:05.737Z,1011.9
2019-06-26T00:31:07.951Z,1011.9
2019-06-26T00:32:10.426Z,1011.9
2019-06-26T00:33:12.712Z,1011.8
2019-06-26T00:34:15.296Z,1011.9
2019-06-26T00:35:17.510Z,1011.8
2019-06-26T00:36:19.773Z,1011.8
2019-06-26T00:37:21.952Z,1011.8
2019-06-26T00:38:24.981Z,1011.8
2019-06-26T00:39:27.140Z,1011.8
2019-06-26T00:40:29.613Z,1011.8
2019-06-26T00:41:32.144Z,1011.8
2019-06-26T00:42:34.917Z,1011.8
2019-06-26T00:43:43.041Z,1011.8
2019-06-26T00:44:45.324Z,1011.7
2019-06-26T00:45:47.539Z,1011.8
2019-06-26T00:46:49.779Z,1011.7
2019-06-26T00:47:52.474Z,1011.8
2019-06-26T00:48:54.759Z,1011.8
2019-06-26T00:49:57.609Z,1011.8
2019-06-26T00:51:00.251Z,1011.7
2019-06-26T00:52:03.072Z,1011.8
2019-06-26T00:53:05.632Z,1011.7
2019-06-26T00:54:08.230Z,1011.7
2019-06-26T00:55:10.942Z,1011.7
2019-06-26T00:56:13.236Z,1011.7
2019-06-26T00:57:15.482Z,1011.7
2019-06-26T00:58:18.341Z,1011.7
2019-06-26T00:59:21.319Z,1011.7
2019-06-26T01:00:23.503Z,1011.7
2019-06-26T01:01:25.698Z,1011.6
2019-06-26T01:02:28.182Z,1011.7
2019-06-26T01:03:31.113Z,1011.7
2019-06-26T01:04:33.318Z,1011.6
2019-06-26T01:05:35.881Z,1011.6
2019-06-26T01:06:38.683Z,1011.6
2019-06-26T01:07:41.260Z,1011.6
2019-06-26T01:08:43.892Z,1011.6
2019-06-26T01:09:46.643Z,1011.7
2019-06-26T01:10:48.907Z,1011.6
2019-06-26T01:11:51.103Z,1011.6
2019-06-26T01:12:53.730Z,1011.6
2019-06-26T01:13:58.675Z,1011.6
2019-06-26T01:15:00.880Z,1011.6
2019-06-26T01:16:03.649Z,1011.6
2019-06-26T01:17:05.854Z,1011.6
2019-06-26T01:18:08.178Z,1011.6
2019-06-26T01:19:10.779Z,1011.6
2019-06-26T01:20:13.530Z,1011.6
2019-06-26T01:21:16.129Z,1011.6
2019-06-26T01:22:18.336Z,1011.6
2019-06-26T01:23:20.528Z,1011.6
2019-06-26T01:24:23.001Z,1011.6
2019-06-26T01:25:25.254Z,1011.6
2019-06-26T01:26:27.743Z,1011.6
2019-06-26T01:27:30.660Z,1011.6
2019-06-26T01:28:33.201Z,1011.6
2019-06-26T01:29:35.772Z,1011.6
2019-06-26T01:30:38.042Z,1011.6
2019-06-26T01:31:40.213Z,1011.6
2019-06-26T01:32:42.477Z,1011.6
2019-06-26T01:33:45.013Z,1011.6
2019-06-26T01:34:47.478Z,1011.6
2019-06-26T01:35:49.712Z,1011.5
2019-06-26T01:36:52.303Z,1011.6
2019-06-26T01:37:54.565Z,1011.6
2019-06-26T01:38:56.749Z,1011.5
2019-06-26T01:39:59.476Z,1011.5
2019-06-26T01:41:01.955Z,1011.5
2019-06-26T01:42:04.502Z,1011.5
2019-06-26T01:43:07.029Z,1011.5
2019-06-26T01:44:15.795Z,1011.5
2019-06-26T01:45:18.461Z,1011.5
2019-06-26T01:46:21.397Z,1011.5
2019-06-26T01:47:23.600Z,1011.5
2019-06-26T01:48:26.164Z,1011.4
2019-06-26T01:49:28.373Z,1011.5
2019-06-26T01:50:31.000Z,1011.4
2019-06-26T01:51:33.231Z,1011.5
2019-06-26T01:52:35.752Z,1011.5
2019-06-26T01:53:37.984Z,1011.4
2019-06-26T01:54:40.485Z,1011.5
2019-06-26T01:55:42.776Z,1011.4
2019-06-26T01:56:45.003Z,1011.4
2019-06-26T01:57:47.214Z,1011.4
2019-06-26T01:58:49.692Z,1011.5
2019-06-26T01:59:51.870Z,1011.5
2019-06-26T02:00:54.023Z,1011.5
2019-06-26T02:01:56.213Z,1011.5
2019-06-26T02:02:58.394Z,1011.5
2019-06-26T02:04:01.033Z,1011.5
2019-06-26T02:05:03.557Z,1011.5
2019-06-26T02:06:05.744Z,1011.5
2019-06-26T02:07:08.236Z,1011.5
2019-06-26T02:08:11.226Z,1011.5
2019-06-26T02:09:13.406Z,1011.6
2019-06-26T02:10:15.611Z,1011.5
2019-06-26T02:11:17.778Z,1011.5
2019-06-26T02:12:20.044Z,1011.5
2019-06-26T02:13:22.257Z,1011.5
2019-06-26T02:14:31.974Z,1011.6
2019-06-26T02:15:34.220Z,1011.5
2019-06-26T02:16:36.726Z,1011.5
2019-06-26T02:17:38.987Z,1011.6
2019-06-26T02:18:41.457Z,1011.6
2019-06-26T02:19:43.661Z,1011.6
2019-06-26T02:20:46.272Z,1011.5
2019-06-26T02:21:48.857Z,1011.5
2019-06-26T02:22:51.490Z,1011.5
2019-06-26T02:23:54.084Z,1011.5
2019-06-26T02:24:56.333Z,1011.5
2019-06-26T02:25:58.565Z,1011.5
2019-06-26T02:27:01.145Z,1011.5
2019-06-26T02:28:04.305Z,1011.5
2019-06-26T02:29:06.494Z,1011.5
2019-06-26T02:30:09.035Z,1011.6
2019-06-26T02:31:11.966Z,1011.6
2019-06-26T02:32:15.230Z,1011.6
2019-06-26T02:33:17.723Z,1011.6
2019-06-26T02:34:19.926Z,1011.6
2019-06-26T02:35:22.519Z,1011.6
2019-06-26T02:36:25.293Z,1011.6
2019-06-26T02:37:27.922Z,1011.6
2019-06-26T02:38:30.843Z,1011.6
2019-06-26T02:39:33.676Z,1011.6
2019-06-26T02:40:36.259Z,1011.6
2019-06-26T02:41:38.844Z,1011.6
2019-06-26T02:42:41.840Z,1011.6
2019-06-26T02:43:44.345Z,1011.6
2019-06-26T02:44:54.733Z,1011.6
2019-06-26T02:45:57.754Z,1011.6
2019-06-26T02:47:20.583Z,1011.6
2019-06-26T02:48:23.819Z,1011.6
2019-06-26T02:49:26.375Z,1011.5
2019-06-26T02:50:28.838Z,1011.5
2019-06-26T02:51:31.338Z,1011.6
2019-06-26T02:52:33.606Z,1011.6
2019-06-26T02:53:35.807Z,1011.6
2019-06-26T02:54:38.327Z,1011.6
2019-06-26T02:55:40.761Z,1011.6
2019-06-26T02:56:43.436Z,1011.6
2019-06-26T02:57:45.720Z,1011.6
2019-06-26T02:58:47.947Z,1011.6
2019-06-26T02:59:50.215Z,1011.6
2019-06-26T03:00:53.147Z,1011.6
2019-06-26T03:01:55.646Z,1011.5
2019-06-26T03:02:58.174Z,1011.6
2019-06-26T03:04:00.382Z,1011.5
2019-06-26T03:05:03.220Z,1011.5
2019-06-26T03:06:05.401Z,1011.5
2019-06-26T03:07:07.674Z,1011.6
2019-06-26T03:08:09.872Z,1011.5
2019-06-26T03:09:12.379Z,1011.5
2019-06-26T03:10:14.576Z,1011.5
2019-06-26T03:11:17.053Z,1011.5
2019-06-26T03:12:19.603Z,1011.5
2019-06-26T03:13:22.118Z,1011.5
2019-06-26T03:14:24.354Z,1011.6
2019-06-26T03:15:26.598Z,1011.5
2019-06-26T03:16:28.765Z,1011.5
2019-06-26T03:17:31.019Z,1011.5
2019-06-26T03:18:33.561Z,1011.5
2019-06-26T03:19:35.750Z,1011.5
2019-06-26T03:20:37.927Z,1011.5
2019-06-26T03:21:40.167Z,1011.5
2019-06-26T03:22:42.751Z,1011.5
2019-06-26T03:23:44.987Z,1011.5
2019-06-26T03:24:47.235Z,1011.5
2019-06-26T03:25:49.445Z,1011.5
2019-06-26T03:26:51.693Z,1011.5
2019-06-26T03:27:53.906Z,1011.5
2019-06-26T03:28:56.083Z,1011.5
2019-06-26T03:29:58.921Z,1011.6
2019-06-26T03:31:01.102Z,1011.5
2019-06-26T03:32:04.036Z,1011.5
2019-06-26T03:33:06.830Z,1011.5
2019-06-26T03:34:09.710Z,1011.5
2019-06-26T03:35:11.917Z,1011.5
2019-06-26T03:36:14.106Z,1011.5
2019-06-26T03:37:16.367Z,1011.5
2019-06-26T03:38:18.514Z,1011.5
2019-06-26T03:39:21.148Z,1011.5
2019-06-26T03:40:23.695Z,1011.5
2019-06-26T03:41:26.304Z,1011.5
2019-06-26T03:42:29.149Z,1011.5
2019-06-26T03:43:31.329Z,1011.5
2019-06-26T03:44:37.699Z,1011.5
2019-06-26T03:45:40.170Z,1011.5
2019-06-26T03:46:42.643Z,1011.5
2019-06-26T03:47:45.442Z,1011.5
2019-06-26T03:48:47.641Z,1011.5
2019-06-26T03:49:49.831Z,1011.5
2019-06-26T03:50:52.274Z,1011.5
2019-06-26T03:51:54.792Z,1011.5
2019-06-26T03:52:57.417Z,1011.5
2019-06-26T03:53:59.996Z,1011.5
2019-06-26T03:55:02.481Z,1011.6
2019-06-26T03:56:04.684Z,1011.5
2019-06-26T03:57:07.470Z,1011.6
2019-06-26T03:58:09.710Z,1011.6
2019-06-26T03:59:12.645Z,1011.5
2019-06-26T04:00:15.283Z,1011.6
2019-06-26T04:01:17.526Z,1011.6
2019-06-26T04:02:20.735Z,1011.6
2019-06-26T04:03:22.931Z,1011.6
2019-06-26T04:04:25.763Z,1011.6
2019-06-26T04:05:28.523Z,1011.6
2019-06-26T04:06:30.805Z,1011.6
2019-06-26T04:07:32.992Z,1011.6
2019-06-26T04:08:35.496Z,1011.6
2019-06-26T04:09:37.700Z,1011.6
2019-06-26T04:10:43.797Z,1011.6
2019-06-26T04:11:46.340Z,1011.6
2019-06-26T04:12:48.558Z,1011.6
2019-06-26T04:13:50.810Z,1011.6
2019-06-26T04:14:52.994Z,1011.5
2019-06-26T04:15:55.568Z,1011.5
2019-06-26T04:16:57.757Z,1011.5
2019-06-26T04:18:00.237Z,1011.5
2019-06-26T04:19:02.828Z,1011.5
2019-06-26T04:20:05.039Z,1011.5
2019-06-26T04:21:07.651Z,1011.5
2019-06-26T04:22:09.820Z,1011.5
2019-06-26T04:23:12.653Z,1011.5
2019-06-26T04:24:14.910Z,1011.5
2019-06-26T04:25:17.105Z,1011.5
2019-06-26T04:26:19.353Z,1011.5
2019-06-26T04:27:21.933Z,1011.5
2019-06-26T04:28:24.524Z,1011.5
2019-06-26T04:29:26.686Z,1011.5
2019-06-26T04:30:28.891Z,1011.5
2019-06-26T04:31:31.490Z,1011.5
2019-06-26T04:32:33.661Z,1011.4
2019-06-26T04:33:35.938Z,1011.5
2019-06-26T04:34:38.167Z,1011.5
2019-06-26T04:35:40.309Z,1011.5
2019-06-26T04:36:42.477Z,1011.5
2019-06-26T04:37:44.608Z,1011.5
2019-06-26T04:38:46.850Z,1011.5
2019-06-26T04:39:49.416Z,1011.5
2019-06-26T04:40:51.657Z,1011.5
2019-06-26T04:41:54.118Z,1011.5
2019-06-26T04:42:56.651Z,1011.5
2019-06-26T04:43:58.895Z,1011.5
2019-06-26T04:45:02.290Z,1011.5
2019-06-26T04:46:04.837Z,1011.5
2019-06-26T04:47:07.719Z,1011.5
2019-06-26T04:48:10.577Z,1011.5
2019-06-26T04:49:12.784Z,1011.5
2019-06-26T04:50:14.928Z,1011.5
2019-06-26T04:51:17.832Z,1011.5
2019-06-26T04:52:20.275Z,1011.4
2019-06-26T04:53:22.455Z,1011.5
2019-06-26T04:54:24.646Z,1011.4
2019-06-26T04:55:27.138Z,1011.5
2019-06-26T04:56:29.704Z,1011.4
2019-06-26T04:57:32.734Z,1011.4
2019-06-26T04:58:35.353Z,1011.4
2019-06-26T04:59:37.540Z,1011.5
2019-06-26T05:00:40.046Z,1011.4
2019-06-26T05:01:42.227Z,1011.5
2019-06-26T05:02:44.959Z,1011.4
2019-06-26T05:03:47.648Z,1011.5
2019-06-26T05:04:49.839Z,1011.5
2019-06-26T05:05:51.959Z,1011.4
2019-06-26T05:06:54.160Z,1011.5
2019-06-26T05:07:56.386Z,1011.4
2019-06-26T05:08:59.235Z,1011.5
2019-06-26T05:10:01.425Z,1011.5
2019-06-26T05:11:04.193Z,1011.5
2019-06-26T05:12:06.373Z,1011.5
2019-06-26T05:13:09.239Z,1011.5
2019-06-26T05:14:11.423Z,1011.5
2019-06-26T05:15:13.820Z,1011.5
2019-06-26T05:16:20.935Z,1011.5
2019-06-26T05:17:23.110Z,1011.5
2019-06-26T05:18:25.451Z,1011.5
2019-06-26T05:19:27.667Z,1011.5
2019-06-26T05:20:29.942Z,1011.5
2019-06-26T05:21:32.519Z,1011.5
2019-06-26T05:22:34.678Z,1011.5
2019-06-26T05:23:37.228Z,1011.5
2019-06-26T05:24:39.314Z,1011.6
2019-06-26T05:25:41.506Z,1011.6
2019-06-26T05:26:43.627Z,1011.5
2019-06-26T05:27:46.111Z,1011.5
2019-06-26T05:28:49.283Z,1011.5
2019-06-26T05:29:54.711Z,1011.5
2019-06-26T05:30:57.176Z,1011.5
2019-06-26T05:31:59.521Z,1011.5
2019-06-26T05:33:01.991Z,1011.5
2019-06-26T05:34:04.136Z,1011.5
2019-06-26T05:35:06.486Z,1011.5
2019-06-26T05:36:08.604Z,1011.6
2019-06-26T05:37:11.080Z,1011.6
2019-06-26T05:38:13.542Z,1011.6
2019-06-26T05:39:15.692Z,1011.6
2019-06-26T05:40:18.226Z,1011.5
2019-06-26T05:41:20.314Z,1011.5
2019-06-26T05:42:22.834Z,1011.5
2019-06-26T05:43:24.999Z,1011.5
2019-06-26T05:44:27.139Z,1011.5
2019-06-26T05:45:29.529Z,1011.5
2019-06-26T05:46:32.408Z,1011.5
2019-06-26T05:47:34.873Z,1011.5
2019-06-26T05:48:36.977Z,1011.6
2019-06-26T05:49:39.390Z,1011.6
2019-06-26T05:50:41.597Z,1011.6
2019-06-26T05:51:45.089Z,1011.6
2019-06-26T05:52:47.257Z,1011.5
2019-06-26T05:53:49.385Z,1011.6
2019-06-26T05:54:51.802Z,1011.6
2019-06-26T05:55:54.318Z,1011.6
2019-06-26T05:56:56.714Z,1011.6
2019-06-26T05:57:59.256Z,1011.6
2019-06-26T05:59:01.350Z,1011.6
2019-06-26T06:00:04.158Z,1011.6
2019-06-26T06:01:06.981Z,1011.6
2019-06-26T06:02:10.262Z,1011.6
2019-06-26T06:03:12.850Z,1011.6
2019-06-26T06:04:15.584Z,1011.6
2019-06-26T06:05:17.891Z,1011.6
2019-06-26T06:06:20.002Z,1011.6
2019-06-26T06:07:22.614Z,1011.6
2019-06-26T06:08:25.007Z,1011.7
2019-06-26T06:09:27.137Z,1011.6
2019-06-26T06:10:29.616Z,1011.6
2019-06-26T06:11:32.014Z,1011.6
2019-06-26T06:12:34.492Z,1011.7
2019-06-26T06:13:36.904Z,1011.6
2019-06-26T06:14:39.313Z,1011.6
2019-06-26T06:15:41.416Z,1011.6
2019-06-26T06:16:48.244Z,1011.6
2019-06-26T06:17:50.708Z,1011.6
2019-06-26T06:18:52.789Z,1011.6
2019-06-26T06:19:55.604Z,1011.7
2019-06-26T06:20:57.731Z,1011.7
2019-06-26T06:22:00.910Z,1011.7
2019-06-26T06:23:03.009Z,1011.7
2019-06-26T06:24:05.227Z,1011.7
2019-06-26T06:25:07.713Z,1011.6
2019-06-26T06:26:10.182Z,1011.7
2019-06-26T06:27:12.347Z,1011.6
2019-06-26T06:28:14.739Z,1011.7
2019-06-26T06:29:16.892Z,1011.7
2019-06-26T06:30:19.056Z,1011.7
2019-06-26T06:31:21.140Z,1011.7
2019-06-26T06:32:23.657Z,1011.6
2019-06-26T06:33:25.776Z,1011.7
2019-06-26T06:34:27.911Z,1011.7
2019-06-26T06:35:30.023Z,1011.7
2019-06-26T06:36:32.145Z,1011.7
2019-06-26T06:37:34.712Z,1011.7
2019-06-26T06:38:36.805Z,1011.7
2019-06-26T06:39:38.970Z,1011.8
2019-06-26T06:40:41.034Z,1011.7
2019-06-26T06:41:43.841Z,1011.8
2019-06-26T06:42:46.003Z,1011.7
2019-06-26T06:43:48.778Z,1011.7
2019-06-26T06:44:50.963Z,1011.7
2019-06-26T06:45:54.031Z,1011.7
2019-06-26T06:47:06.662Z,1011.7
2019-06-26T06:48:11.429Z,1011.8
2019-06-26T06:49:13.832Z,1011.8
2019-06-26T06:50:15.947Z,1011.7
2019-06-26T06:51:18.051Z,1011.7
2019-06-26T06:52:20.513Z,1011.8
2019-06-26T06:53:22.649Z,1011.8
2019-06-26T06:54:24.807Z,1011.8
2019-06-26T06:55:26.974Z,1011.8
2019-06-26T06:56:29.649Z,1011.8
2019-06-26T06:57:32.143Z,1011.8
2019-06-26T06:58:34.295Z,1011.8
2019-06-26T06:59:36.484Z,1011.8
2019-06-26T07:00:38.932Z,1011.8
2019-06-26T07:01:41.411Z,1011.8
2019-06-26T07:02:43.830Z,1011.8
2019-06-26T07:03:46.202Z,1011.9
2019-06-26T07:04:48.729Z,1011.8
2019-06-26T07:05:51.178Z,1011.8
2019-06-26T07:06:53.714Z,1011.9
2019-06-26T07:07:55.847Z,1011.9
2019-06-26T07:08:58.645Z,1011.9
2019-06-26T07:10:01.521Z,1011.9
2019-06-26T07:11:04.091Z,1011.9
2019-06-26T07:12:07.029Z,1011.9
2019-06-26T07:13:09.865Z,1011.9
2019-06-26T07:14:12.356Z,1012
2019-06-26T07:15:14.705Z,1011.9
2019-06-26T07:16:17.820Z,1011.9
2019-06-26T07:17:21.709Z,1012
2019-06-26T07:18:24.115Z,1012
2019-06-26T07:19:26.557Z,1012
2019-06-26T07:20:29.004Z,1012
2019-06-26T07:21:31.192Z,1012
2019-06-26T07:22:33.305Z,1012
2019-06-26T07:23:35.708Z,1012
2019-06-26T07:24:37.876Z,1012
2019-06-26T07:25:40.283Z,1012
2019-06-26T07:26:42.730Z,1012
2019-06-26T07:27:45.150Z,1012
2019-06-26T07:28:47.305Z,1012
2019-06-26T07:29:49.414Z,1012
2019-06-26T07:30:51.870Z,1012
2019-06-26T07:31:54.772Z,1012
2019-06-26T07:32:57.246Z,1012
2019-06-26T07:33:59.798Z,1012
2019-06-26T07:35:02.266Z,1012
2019-06-26T07:36:05.118Z,1012
2019-06-26T07:37:07.586Z,1012
2019-06-26T07:38:10.007Z,1012.1
2019-06-26T07:39:12.485Z,1012
2019-06-26T07:40:14.602Z,1012
2019-06-26T07:41:16.734Z,1012.1
2019-06-26T07:42:19.135Z,1012.1
2019-06-26T07:43:21.563Z,1012.1
2019-06-26T07:44:24.765Z,1012.1
2019-06-26T07:45:26.871Z,1012.1
2019-06-26T07:46:29.342Z,1012.1
2019-06-26T07:47:44.277Z,1012.1
2019-06-26T07:48:46.536Z,1012.1
2019-06-26T07:49:48.931Z,1012.1
2019-06-26T07:50:51.060Z,1012.1
2019-06-26T07:51:54.245Z,1012.1
2019-06-26T07:52:57.601Z,1012.2
2019-06-26T07:54:00.233Z,1012.2
2019-06-26T07:55:02.387Z,1012.1
2019-06-26T07:56:05.034Z,1012.1
2019-06-26T07:57:07.553Z,1012.1
2019-06-26T07:58:10.122Z,1012.1
2019-06-26T07:59:12.812Z,1012.1
2019-06-26T08:00:14.929Z,1012.2
2019-06-26T08:01:17.118Z,1012.2
2019-06-26T08:02:19.296Z,1012.1
2019-06-26T08:03:21.422Z,1012.1
2019-06-26T08:04:24.345Z,1012.2
2019-06-26T08:05:26.978Z,1012.2
2019-06-26T08:06:29.157Z,1012.2
2019-06-26T08:07:31.673Z,1012.2
2019-06-26T08:08:33.853Z,1012.2
2019-06-26T08:09:36.254Z,1012.3
2019-06-26T08:10:38.805Z,1012.2
2019-06-26T08:11:41.843Z,1012.3
2019-06-26T08:12:44.306Z,1012.3
2019-06-26T08:13:46.511Z,1012.2
2019-06-26T08:14:49.030Z,1012.3
2019-06-26T08:15:52.301Z,1012.2
2019-06-26T08:16:55.094Z,1012.3
2019-06-26T08:18:01.774Z,1012.3
2019-06-26T08:19:04.601Z,1012.4
2019-06-26T08:20:06.890Z,1012.3
2019-06-26T08:21:13.307Z,1012.4
2019-06-26T08:22:15.678Z,1012.4
2019-06-26T08:23:17.861Z,1012.3
2019-06-26T08:24:20.062Z,1012.4
2019-06-26T08:25:22.599Z,1012.4
2019-06-26T08:26:24.836Z,1012.4
2019-06-26T08:27:27.347Z,1012.4
2019-06-26T08:28:29.865Z,1012.4
2019-06-26T08:29:32.302Z,1012.4
2019-06-26T08:30:34.491Z,1012.4
2019-06-26T08:31:37.365Z,1012.4
2019-06-26T08:32:39.543Z,1012.3
2019-06-26T08:33:41.833Z,1012.4
2019-06-26T08:34:44.710Z,1012.5
2019-06-26T08:35:46.878Z,1012.5
2019-06-26T08:36:49.471Z,1012.5
2019-06-26T08:38:12.665Z,1012.5
2019-06-26T08:39:18.510Z,1012.5
2019-06-26T08:40:20.768Z,1012.5
2019-06-26T08:41:23.433Z,1012.5
2019-06-26T08:42:25.626Z,1012.5
2019-06-26T08:43:31.798Z,1012.5
2019-06-26T08:44:34.406Z,1012.5
2019-06-26T08:45:36.582Z,1012.5
2019-06-26T08:46:38.794Z,1012.5
2019-06-26T08:47:41.905Z,1012.5
2019-06-26T08:48:44.945Z,1012.5
2019-06-26T08:49:47.366Z,1012.5
2019-06-26T08:50:49.642Z,1012.5
2019-06-26T08:51:51.789Z,1012.5
2019-06-26T08:52:54.676Z,1012.5
2019-06-26T08:53:56.855Z,1012.5
2019-06-26T08:54:59.041Z,1012.5
2019-06-26T08:56:01.695Z,1012.5
2019-06-26T08:57:04.229Z,1012.5
2019-06-26T08:58:06.467Z,1012.5
2019-06-26T08:59:09.009Z,1012.5
2019-06-26T09:00:11.529Z,1012.5
2019-06-26T09:01:14.419Z,1012.5
2019-06-26T09:02:16.627Z,1012.5
2019-06-26T09:03:18.886Z,1012.5
2019-06-26T09:04:21.096Z,1012.5
2019-06-26T09:05:24.037Z,1012.5
2019-06-26T09:06:26.997Z,1012.5
2019-06-26T09:07:29.227Z,1012.6
2019-06-26T09:08:32.688Z,1012.6
2019-06-26T09:09:35.223Z,1012.6
2019-06-26T09:10:37.867Z,1012.5
2019-06-26T09:11:40.096Z,1012.6
2019-06-26T09:12:42.565Z,1012.6
2019-06-26T09:13:44.771Z,1012.7
2019-06-26T09:14:46.969Z,1012.7
2019-06-26T09:15:50.506Z,1012.6
2019-06-26T09:16:52.725Z,1012.7
2019-06-26T09:17:55.616Z,1012.7
2019-06-26T09:18:58.103Z,1012.8
2019-06-26T09:20:00.632Z,1012.7
2019-06-26T09:21:03.747Z,1012.7
2019-06-26T09:22:05.959Z,1012.7
2019-06-26T09:23:08.503Z,1012.7
2019-06-26T09:24:11.142Z,1012.7
2019-06-26T09:25:22.696Z,1012.7
2019-06-26T09:26:25.010Z,1012.7
2019-06-26T09:27:28.218Z,1012.8
2019-06-26T09:28:30.462Z,1012.7
2019-06-26T09:29:32.931Z,1012.7
2019-06-26T09:30:35.199Z,1012.7
2019-06-26T09:31:37.377Z,1012.7
2019-06-26T09:32:39.644Z,1012.7
2019-06-26T09:33:42.205Z,1012.7
2019-06-26T09:34:44.678Z,1012.8
2019-06-26T09:35:46.973Z,1012.7
2019-06-26T09:36:49.906Z,1012.7
2019-06-26T09:37:53.214Z,1012.7
2019-06-26T09:38:58.190Z,1012.6
2019-06-26T09:40:01.130Z,1012.7
2019-06-26T09:41:03.702Z,1012.7
2019-06-26T09:42:06.625Z,1012.7
2019-06-26T09:43:09.503Z,1012.7
2019-06-26T09:44:11.752Z,1012.7
2019-06-26T09:45:13.982Z,1012.8
2019-06-26T09:46:16.583Z,1012.8
2019-06-26T09:47:19.788Z,1012.7
2019-06-26T09:48:22.228Z,1012.7
2019-06-26T09:49:25.045Z,1012.7
2019-06-26T09:50:27.877Z,1012.7
2019-06-26T09:51:30.348Z,1012.7
2019-06-26T09:52:32.971Z,1012.8
2019-06-26T09:53:47.951Z,1012.8
2019-06-26T09:54:50.795Z,1012.8
2019-06-26T09:55:53.040Z,1012.7
2019-06-26T09:56:55.536Z,1012.8
2019-06-26T09:57:57.814Z,1012.8
2019-06-26T09:59:00.279Z,1012.7
2019-06-26T10:00:03.262Z,1012.7
2019-06-26T10:01:05.894Z,1012.7
2019-06-26T10:02:08.091Z,1012.8
2019-06-26T10:03:10.640Z,1012.8
2019-06-26T10:04:13.135Z,1012.7
2019-06-26T10:05:16.127Z,1012.7
2019-06-26T10:06:18.302Z,1012.8
2019-06-26T10:07:20.862Z,1012.8
2019-06-26T10:08:23.142Z,1012.8
2019-06-26T10:09:25.795Z,1012.8
2019-06-26T10:10:28.082Z,1012.8
2019-06-26T10:11:30.900Z,1012.8
2019-06-26T10:12:33.101Z,1012.8
2019-06-26T10:13:35.671Z,1012.7
2019-06-26T10:14:48.226Z,1012.8
2019-06-26T10:15:50.732Z,1012.8
2019-06-26T10:16:52.994Z,1012.8
2019-06-26T10:17:56.470Z,1012.8
2019-06-26T10:19:10.780Z,1012.8
2019-06-26T10:20:13.550Z,1012.9
2019-06-26T10:21:15.975Z,1012.7
2019-06-26T10:22:18.166Z,1012.9
2019-06-26T10:23:20.328Z,1012.8
2019-06-26T10:24:22.853Z,1012.8
2019-06-26T10:25:25.398Z,1012.9
2019-06-26T10:26:32.783Z,1012.9
2019-06-26T10:27:35.358Z,1012.9
2019-06-26T10:28:37.715Z,1012.9
2019-06-26T10:29:41.076Z,1013
2019-06-26T10:30:43.388Z,1013
2019-06-26T10:31:45.864Z,1013
2019-06-26T10:32:48.131Z,1012.9
2019-06-26T10:33:50.354Z,1013
2019-06-26T10:34:53.305Z,1013
2019-06-26T10:35:55.789Z,1012.9
2019-06-26T10:36:58.049Z,1013
2019-06-26T10:38:00.681Z,1013
2019-06-26T10:39:04.109Z,1013
2019-06-26T10:40:06.779Z,1013
2019-06-26T10:41:09.387Z,1013
2019-06-26T10:42:11.594Z,1013
2019-06-26T10:43:13.812Z,1013
2019-06-26T10:44:16.613Z,1013
2019-06-26T10:45:19.534Z,1013
2019-06-26T10:46:21.734Z,1013
2019-06-26T10:47:24.388Z,1013
2019-06-26T10:48:26.966Z,1012.9
2019-06-26T10:49:29.719Z,1013
2019-06-26T10:50:32.824Z,1013
2019-06-26T10:51:35.011Z,1013
2019-06-26T10:52:37.981Z,1013
2019-06-26T10:53:40.417Z,1013
2019-06-26T10:54:44.836Z,1013
2019-06-26T10:55:47.107Z,1013.1
2019-06-26T10:56:49.749Z,1013
2019-06-26T10:57:52.326Z,1013
2019-06-26T10:58:54.857Z,1013
2019-06-26T10:59:57.159Z,1013
2019-06-26T11:00:59.760Z,1013
2019-06-26T11:02:02.038Z,1013
2019-06-26T11:03:04.948Z,1013
2019-06-26T11:04:07.539Z,1013
2019-06-26T11:05:10.465Z,1013
2019-06-26T11:06:12.689Z,1013.1
2019-06-26T11:07:14.862Z,1013.1
2019-06-26T11:08:17.072Z,1013
2019-06-26T11:09:19.231Z,1013.1
2019-06-26T11:10:22.034Z,1013
2019-06-26T11:11:24.802Z,1013
2019-06-26T11:12:27.498Z,1013
2019-06-26T11:13:29.991Z,1013.2
2019-06-26T11:14:32.667Z,1013.2
2019-06-26T11:15:36.261Z,1013.1
2019-06-26T11:16:38.853Z,1013.1
2019-06-26T11:17:41.452Z,1013.1
2019-06-26T11:18:44.037Z,1013.1
2019-06-26T11:19:46.605Z,1013.1
2019-06-26T11:20:49.111Z,1013.1
2019-06-26T11:21:51.274Z,1013
2019-06-26T11:22:53.798Z,1013.1
2019-06-26T11:23:55.987Z,1013.1
2019-06-26T11:24:58.264Z,1013
2019-06-26T11:26:00.766Z,1013
2019-06-26T11:27:03.742Z,1013.1
2019-06-26T11:28:05.945Z,1013
2019-06-26T11:29:08.170Z,1013.1
2019-06-26T11:30:10.702Z,1013.2
2019-06-26T11:31:13.921Z,1013.2
2019-06-26T11:32:16.425Z,1013.1
2019-06-26T11:33:18.652Z,1013.2
2019-06-26T11:34:22.305Z,1013.2
2019-06-26T11:35:24.579Z,1013.2
2019-06-26T11:36:27.051Z,1013.1
2019-06-26T11:37:29.934Z,1013.1
2019-06-26T11:38:32.156Z,1013.2
2019-06-26T11:39:34.707Z,1013.1
2019-06-26T11:40:36.934Z,1013.1
2019-06-26T11:41:39.428Z,1013.1
2019-06-26T11:42:42.177Z,1013.2
2019-06-26T11:43:44.484Z,1013.1
2019-06-26T11:44:47.062Z,1013.2
2019-06-26T11:45:50.220Z,1013.1
2019-06-26T11:46:52.760Z,1013.1
2019-06-26T11:47:54.970Z,1013.2
2019-06-26T11:48:57.422Z,1013.2
2019-06-26T11:50:00.762Z,1013.2
2019-06-26T11:51:03.617Z,1013.2
2019-06-26T11:52:05.878Z,1013.3
2019-06-26T11:53:08.151Z,1013.1
2019-06-26T11:54:10.780Z,1013.1
2019-06-26T11:55:13.038Z,1013.1
2019-06-26T11:56:15.484Z,1013.2
2019-06-26T11:57:18.474Z,1013.2
2019-06-26T11:58:21.013Z,1013.2
2019-06-26T11:59:23.266Z,1013.2
2019-06-26T12:00:25.747Z,1013.3
2019-06-26T12:01:28.347Z,1013.2
2019-06-26T12:02:31.670Z,1013.2
2019-06-26T12:03:33.871Z,1013.2
2019-06-26T12:04:36.142Z,1013.3
2019-06-26T12:05:38.396Z,1013.2
2019-06-26T12:06:40.658Z,1013.2
2019-06-26T12:07:47.838Z,1013.2
2019-06-26T12:08:50.052Z,1013.2
2019-06-26T12:09:52.371Z,1013.2
2019-06-26T12:10:55.568Z,1013.2
2019-06-26T12:11:57.853Z,1013.2
2019-06-26T12:13:04.513Z,1013.1
2019-06-26T12:14:07.091Z,1013.1
2019-06-26T12:15:09.585Z,1013.1
2019-06-26T12:16:12.394Z,1013.2
2019-06-26T12:17:14.939Z,1013.1
2019-06-26T12:18:17.152Z,1013.2
2019-06-26T12:19:23.714Z,1013.2
2019-06-26T12:20:26.492Z,1013.1
2019-06-26T12:21:29.210Z,1013.2
2019-06-26T12:22:31.726Z,1013.1
2019-06-26T12:23:34.008Z,1013.1
2019-06-26T12:24:36.645Z,1013.2
2019-06-26T12:25:39.226Z,1013.2
2019-06-26T12:26:41.472Z,1013.1
2019-06-26T12:27:43.745Z,1013.2
2019-06-26T12:28:46.718Z,1013.2
2019-06-26T12:29:48.912Z,1013.2
2019-06-26T12:30:51.422Z,1013.1
2019-06-26T12:31:53.672Z,1013.1
2019-06-26T12:33:03.907Z,1013.2
2019-06-26T12:34:06.282Z,1013.2
2019-06-26T12:35:09.395Z,1013.3
2019-06-26T12:36:11.613Z,1013.2
2019-06-26T12:37:14.237Z,1013.2
2019-06-26T12:38:16.711Z,1013.2
2019-06-26T12:39:18.974Z,1013.2
2019-06-26T12:40:21.192Z,1013.2
2019-06-26T12:41:23.448Z,1013.3
2019-06-26T12:42:25.652Z,1013.2
2019-06-26T12:43:28.542Z,1013.3
2019-06-26T12:44:30.795Z,1013.2
2019-06-26T12:45:32.997Z,1013.3
2019-06-26T12:46:35.260Z,1013.2
2019-06-26T12:47:37.832Z,1013.3
2019-06-26T12:48:40.392Z,1013.3
2019-06-26T12:49:42.601Z,1013.2
2019-06-26T12:50:44.820Z,1013.2
2019-06-26T12:51:47.598Z,1013.4
2019-06-26T12:52:49.884Z,1013.3
2019-06-26T12:53:52.434Z,1013.3
2019-06-26T12:54:54.620Z,1013.4
2019-06-26T12:55:57.157Z,1013.3
2019-06-26T12:57:00.029Z,1013.3
2019-06-26T12:58:18.001Z,1013.4
2019-06-26T12:59:22.705Z,1013.4
2019-06-26T13:00:25.210Z,1013.4
2019-06-26T13:01:27.555Z,1013.4
2019-06-26T13:02:29.830Z,1013.4
2019-06-26T13:03:32.102Z,1013.4
2019-06-26T13:04:34.628Z,1013.4
2019-06-26T13:05:36.832Z,1013.4
2019-06-26T13:06:39.885Z,1013.4
2019-06-26T13:07:42.688Z,1013.5
2019-06-26T13:08:44.950Z,1013.5